createdAt,value
2018-07-26T00:00:09.586Z,19.40
2018-07-26T00:02:38.440Z,19.30
2018-07-26T00:05:07.097Z,19.40
2018-07-26T00:07:36.473Z,19.30
2018-07-26T00:10:06.856Z,19.30
2018-07-26T00:12:35.981Z,19.30
2018-07-26T00:15:05.646Z,19.20
2018-07-26T00:17:34.346Z,19.20
2018-07-26T00:20:03.595Z,19.20
2018-07-26T00:22:32.653Z,19.20
2018-07-26T00:25:01.431Z,19.20
2018-07-26T00:27:30.171Z,19.20
2018-07-26T00:29:59.250Z,19.10
2018-07-26T00:32:28.179Z,19.20
2018-07-26T00:34:56.911Z,19.20
2018-07-26T00:37:25.641Z,19.10
2018-07-26T00:39:54.637Z,19.20
2018-07-26T00:42:23.202Z,19.20
2018-07-26T00:44:51.942Z,19.10
2018-07-26T00:47:21.069Z,19.10
2018-07-26T00:49:49.948Z,19.10
2018-07-26T00:52:18.672Z,19.10
2018-07-26T00:54:47.647Z,19.10
2018-07-26T00:57:16.647Z,19.10
2018-07-26T00:59:45.736Z,19.10
2018-07-26T01:02:14.722Z,19.10
2018-07-26T01:04:43.421Z,19.10
2018-07-26T01:07:12.235Z,19.00
2018-07-26T01:09:41.325Z,19.00
2018-07-26T01:12:10.078Z,19.00
2018-07-26T01:14:39.128Z,19.00
2018-07-26T01:17:08.061Z,19.00
2018-07-26T01:19:37.070Z,18.90
2018-07-26T01:22:06.688Z,18.90
2018-07-26T01:24:35.990Z,18.90
2018-07-26T01:27:05.099Z,18.90
2018-07-26T01:29:33.890Z,18.90
2018-07-26T01:32:02.860Z,18.90
2018-07-26T01:34:31.559Z,18.90
2018-07-26T01:37:00.298Z,18.90
2018-07-26T01:41:57.393Z,18.90
2018-07-26T01:44:26.469Z,18.90
2018-07-26T01:46:55.285Z,18.90
2018-07-26T01:49:24.393Z,18.90
2018-07-26T01:51:53.390Z,18.90
2018-07-26T01:54:22.263Z,18.90
2018-07-26T01:56:51.060Z,18.80
2018-07-26T01:59:19.709Z,18.90
2018-07-26T02:01:48.562Z,18.80
2018-07-26T02:04:17.157Z,18.80
2018-07-26T02:06:45.972Z,18.80
2018-07-26T02:09:14.918Z,18.80
2018-07-26T02:11:43.487Z,18.80
2018-07-26T02:14:17.523Z,18.80
2018-07-26T02:16:46.364Z,18.80
2018-07-26T02:19:14.964Z,18.80
2018-07-26T02:21:43.856Z,18.70
2018-07-26T02:24:12.656Z,18.70
2018-07-26T02:26:41.295Z,18.70
2018-07-26T02:29:10.062Z,18.70
2018-07-26T02:31:39.081Z,18.70
2018-07-26T02:34:08.102Z,18.70
2018-07-26T02:36:36.978Z,18.70
2018-07-26T02:39:07.321Z,18.70
2018-07-26T02:41:36.237Z,18.60
2018-07-26T02:44:05.260Z,18.70
2018-07-26T02:46:34.021Z,18.70
2018-07-26T02:49:03.048Z,18.70
2018-07-26T02:51:31.879Z,18.60
2018-07-26T02:54:00.570Z,18.60
2018-07-26T02:56:29.177Z,18.60
2018-07-26T02:58:57.833Z,18.60
2018-07-26T03:01:26.608Z,18.60
2018-07-26T03:03:55.653Z,18.50
2018-07-26T03:06:24.463Z,18.50
2018-07-26T03:08:53.164Z,18.50
2018-07-26T03:11:22.137Z,18.40
2018-07-26T03:13:50.738Z,18.50
2018-07-26T03:16:19.510Z,18.50
2018-07-26T03:18:48.229Z,18.40
2018-07-26T03:21:16.935Z,18.40
2018-07-26T03:23:45.752Z,18.40
2018-07-26T03:26:14.804Z,18.40
2018-07-26T03:28:43.512Z,18.40
2018-07-26T03:31:12.323Z,18.30
2018-07-26T03:33:41.110Z,18.40
2018-07-26T03:36:10.089Z,18.30
2018-07-26T03:38:38.974Z,18.30
2018-07-26T03:41:07.967Z,18.30
2018-07-26T03:43:36.876Z,18.20
2018-07-26T03:46:05.788Z,18.30
2018-07-26T03:48:34.529Z,18.30
2018-07-26T03:51:03.277Z,18.30
2018-07-26T03:53:32.134Z,18.20
2018-07-26T03:56:01.121Z,18.30
2018-07-26T03:58:30.030Z,18.20
2018-07-26T04:00:58.836Z,18.30
2018-07-26T04:03:27.697Z,18.20
2018-07-26T04:05:56.819Z,18.30
2018-07-26T04:08:25.796Z,18.30
2018-07-26T04:10:54.863Z,18.30
2018-07-26T04:13:23.680Z,18.30
2018-07-26T04:15:52.237Z,18.20
2018-07-26T04:18:20.818Z,18.30
2018-07-26T04:20:49.500Z,18.30
2018-07-26T04:23:18.224Z,18.20
2018-07-26T04:25:47.085Z,18.30
2018-07-26T04:28:16.102Z,18.30
2018-07-26T04:30:44.787Z,18.30
2018-07-26T04:33:13.398Z,18.30
2018-07-26T04:35:42.078Z,18.30
2018-07-26T04:38:11.203Z,18.20
2018-07-26T04:40:39.844Z,18.30
2018-07-26T04:43:08.678Z,18.30
2018-07-26T04:45:37.637Z,18.20
2018-07-26T04:48:06.288Z,18.20
2018-07-26T04:50:35.216Z,18.20
2018-07-26T04:53:04.354Z,18.20
2018-07-26T04:55:33.190Z,18.20
2018-07-26T04:58:01.898Z,18.30
2018-07-26T05:00:30.882Z,18.30
2018-07-26T05:02:59.765Z,18.30
2018-07-26T05:05:28.642Z,18.40
2018-07-26T05:07:57.452Z,18.40
2018-07-26T05:10:26.115Z,18.40
2018-07-26T05:12:54.880Z,18.30
2018-07-26T05:15:23.889Z,18.40
2018-07-26T05:17:52.643Z,18.40
2018-07-26T05:20:21.363Z,18.40
2018-07-26T05:22:50.284Z,18.40
2018-07-26T05:25:19.261Z,18.40
2018-07-26T05:27:48.111Z,18.50
2018-07-26T05:30:16.976Z,18.50
2018-07-26T05:32:45.741Z,18.50
2018-07-26T05:35:14.578Z,18.60
2018-07-26T05:37:43.679Z,18.60
2018-07-26T05:40:12.465Z,18.60
2018-07-26T05:42:41.369Z,18.60
2018-07-26T05:45:10.438Z,18.70
2018-07-26T05:47:39.677Z,18.80
2018-07-26T05:50:09.134Z,18.80
2018-07-26T05:52:38.676Z,18.90
2018-07-26T05:55:08.576Z,18.90
2018-07-26T05:57:37.346Z,19.00
2018-07-26T06:00:08.840Z,19.00
2018-07-26T06:02:37.673Z,19.00
2018-07-26T06:05:07.280Z,19.10
2018-07-26T06:07:36.100Z,19.10
2018-07-26T06:10:05.838Z,19.10
2018-07-26T06:12:34.657Z,19.20
2018-07-26T06:15:03.474Z,19.20
2018-07-26T06:17:32.316Z,19.20
2018-07-26T06:20:01.016Z,19.30
2018-07-26T06:22:29.808Z,19.30
2018-07-26T06:24:58.697Z,19.30
2018-07-26T06:27:27.414Z,19.30
2018-07-26T06:29:56.386Z,19.30
2018-07-26T06:32:25.365Z,19.30
2018-07-26T06:34:54.099Z,19.30
2018-07-26T06:37:22.700Z,19.30
2018-07-26T06:39:51.566Z,19.30
2018-07-26T06:42:20.357Z,19.40
2018-07-26T06:44:49.049Z,19.40
2018-07-26T06:47:17.968Z,19.40
2018-07-26T06:49:46.893Z,19.40
2018-07-26T06:52:15.694Z,19.40
2018-07-26T06:54:44.300Z,19.40
2018-07-26T06:57:13.185Z,19.40
2018-07-26T06:59:41.767Z,19.40
2018-07-26T07:02:10.613Z,19.40
2018-07-26T07:04:39.367Z,19.40
2018-07-26T07:07:07.974Z,19.40
2018-07-26T07:09:36.537Z,19.50
2018-07-26T07:12:05.684Z,19.40
2018-07-26T07:14:34.313Z,19.40
2018-07-26T07:17:03.157Z,19.50
2018-07-26T07:19:31.862Z,19.50
2018-07-26T07:22:00.855Z,19.50
2018-07-26T07:24:29.669Z,19.50
2018-07-26T07:26:58.578Z,19.50
2018-07-26T07:29:27.411Z,19.50
2018-07-26T07:31:56.108Z,19.50
2018-07-26T07:34:24.810Z,19.50
2018-07-26T07:36:53.531Z,19.60
2018-07-26T07:39:22.212Z,19.60
2018-07-26T07:41:51.223Z,19.50
2018-07-26T07:44:20.188Z,19.60
2018-07-26T07:46:48.796Z,19.60
2018-07-26T07:49:17.625Z,19.60
2018-07-26T07:51:46.594Z,19.60
2018-07-26T07:54:15.515Z,19.60
2018-07-26T07:56:44.237Z,19.60
2018-07-26T07:59:13.201Z,19.60
2018-07-26T08:01:41.911Z,19.60
2018-07-26T08:04:10.783Z,19.60
2018-07-26T08:06:39.541Z,19.60
2018-07-26T08:09:10.774Z,19.60
2018-07-26T08:11:39.410Z,19.60
2018-07-26T08:14:08.901Z,19.60
2018-07-26T08:16:37.729Z,19.60
2018-07-26T08:19:06.946Z,19.60
2018-07-26T08:21:36.054Z,19.60
2018-07-26T08:24:04.808Z,19.60
2018-07-26T08:26:33.560Z,19.60
2018-07-26T08:29:02.569Z,19.70
2018-07-26T08:31:31.256Z,19.70
2018-07-26T08:34:00.226Z,19.60
2018-07-26T08:36:28.820Z,19.70
2018-07-26T08:38:57.478Z,19.70
2018-07-26T08:41:26.164Z,19.70
2018-07-26T08:43:54.925Z,19.70
2018-07-26T08:46:23.840Z,19.70
2018-07-26T08:48:52.669Z,19.70
2018-07-26T08:51:21.473Z,19.60
2018-07-26T08:53:50.463Z,19.60
2018-07-26T08:56:19.382Z,19.60
2018-07-26T08:58:48.253Z,19.60
2018-07-26T09:01:17.333Z,19.70
2018-07-26T09:03:46.157Z,19.70
2018-07-26T09:06:15.117Z,19.70
2018-07-26T09:08:43.858Z,19.70
2018-07-26T09:11:12.920Z,19.70
2018-07-26T09:13:41.923Z,19.70
2018-07-26T09:16:10.729Z,19.70
2018-07-26T09:18:40.274Z,19.80
2018-07-26T09:21:09.171Z,19.80
2018-07-26T09:23:38.009Z,19.80
2018-07-26T09:26:07.116Z,19.90
2018-07-26T09:28:36.049Z,19.90
2018-07-26T09:31:05.256Z,19.90
2018-07-26T09:33:34.162Z,19.90
2018-07-26T09:36:03.281Z,19.90
2018-07-26T09:38:32.141Z,20.00
2018-07-26T09:41:01.262Z,19.90
2018-07-26T09:43:30.050Z,19.90
2018-07-26T09:45:59.042Z,19.90
2018-07-26T09:48:28.247Z,19.90
2018-07-26T09:50:57.114Z,19.80
2018-07-26T09:53:26.110Z,19.90
2018-07-26T09:55:55.319Z,19.90
2018-07-26T09:58:24.233Z,19.90
2018-07-26T10:00:58.271Z,19.90
2018-07-26T10:03:27.026Z,19.90
2018-07-26T10:05:55.772Z,20.00
2018-07-26T10:08:24.655Z,20.00
2018-07-26T10:13:21.900Z,20.00
2018-07-26T10:15:50.856Z,20.00
2018-07-26T10:18:19.748Z,20.00
2018-07-26T10:20:48.318Z,20.00
2018-07-26T10:23:17.420Z,20.00
2018-07-26T10:25:46.538Z,20.10
2018-07-26T10:28:15.301Z,20.10
2018-07-26T10:30:43.947Z,20.10
2018-07-26T10:33:12.698Z,20.10
2018-07-26T10:35:41.261Z,20.10
2018-07-26T10:38:10.158Z,20.10
2018-07-26T10:40:38.969Z,20.10
2018-07-26T10:43:07.764Z,20.10
2018-07-26T10:45:36.654Z,20.20
2018-07-26T10:48:05.706Z,20.20
2018-07-26T10:50:34.280Z,20.20
2018-07-26T10:53:03.174Z,20.20
2018-07-26T10:55:31.733Z,20.20
2018-07-26T11:00:29.398Z,20.20
2018-07-26T11:02:58.128Z,20.10
2018-07-26T11:05:26.937Z,20.10
2018-07-26T11:07:55.842Z,20.00
2018-07-26T11:10:24.514Z,20.00
2018-07-26T11:12:53.244Z,20.00
2018-07-26T11:15:26.020Z,20.00
2018-07-26T11:17:55.727Z,20.00
2018-07-26T11:20:24.578Z,20.00
2018-07-26T11:22:53.458Z,20.10
2018-07-26T11:25:22.173Z,20.10
2018-07-26T11:27:50.813Z,20.10
2018-07-26T11:30:19.548Z,20.10
2018-07-26T11:32:48.415Z,20.10
2018-07-26T11:35:17.559Z,20.10
2018-07-26T11:37:46.415Z,20.10
2018-07-26T11:40:15.255Z,20.10
2018-07-26T11:42:43.853Z,20.10
2018-07-26T11:45:12.610Z,20.20
2018-07-26T11:47:41.226Z,20.10
2018-07-26T11:50:10.888Z,20.20
2018-07-26T11:52:39.558Z,20.20
2018-07-26T11:55:08.406Z,20.20
2018-07-26T11:57:37.359Z,20.20
2018-07-26T12:00:07.266Z,20.20
2018-07-26T12:02:35.858Z,20.20
2018-07-26T12:05:04.903Z,20.20
2018-07-26T12:10:02.072Z,20.20
2018-07-26T12:12:30.824Z,20.40
2018-07-26T12:14:59.688Z,20.30
2018-07-26T12:17:28.381Z,20.40
2018-07-26T12:19:57.256Z,20.30
2018-07-26T12:22:26.038Z,20.30
2018-07-26T12:24:54.750Z,20.30
2018-07-26T12:27:23.620Z,20.30
2018-07-26T12:29:52.296Z,20.30
2018-07-26T12:32:21.104Z,20.20
2018-07-26T12:34:49.929Z,20.30
2018-07-26T12:37:18.829Z,20.30
2018-07-26T12:39:47.654Z,20.30
2018-07-26T12:42:16.410Z,20.30
2018-07-26T12:44:45.106Z,20.20
2018-07-26T12:47:13.861Z,20.20
2018-07-26T12:49:42.634Z,20.20
2018-07-26T12:52:15.863Z,20.20
2018-07-26T12:54:44.542Z,20.20
2018-07-26T12:57:13.168Z,20.20
2018-07-26T12:59:41.871Z,20.20
2018-07-26T13:02:11.093Z,20.20
2018-07-26T13:04:39.759Z,20.20
2018-07-26T13:07:08.356Z,20.20
2018-07-26T13:09:36.945Z,20.20
2018-07-26T13:12:05.619Z,20.20
2018-07-26T13:14:34.326Z,20.10
2018-07-26T13:17:03.009Z,20.10
2018-07-26T13:19:31.629Z,20.20
2018-07-26T13:22:00.237Z,20.20
2018-07-26T13:24:28.876Z,20.30
2018-07-26T13:26:57.563Z,20.40
2018-07-26T13:29:26.237Z,20.40
2018-07-26T13:31:54.984Z,20.40
2018-07-26T13:34:23.640Z,20.40
2018-07-26T13:36:52.274Z,20.30
2018-07-26T13:39:20.909Z,20.30
2018-07-26T13:41:49.593Z,20.30
2018-07-26T13:44:18.249Z,20.30
2018-07-26T13:46:46.928Z,20.30
2018-07-26T13:49:15.543Z,20.30
2018-07-26T13:51:44.227Z,20.30
2018-07-26T13:54:12.771Z,20.30
2018-07-26T13:56:41.410Z,20.30
2018-07-26T13:59:10.178Z,20.30
2018-07-26T14:01:39.054Z,20.30
2018-07-26T14:04:07.854Z,20.30
2018-07-26T14:06:36.432Z,20.20
2018-07-26T14:09:09.165Z,20.20
2018-07-26T14:11:38.084Z,20.20
2018-07-26T14:14:07.518Z,20.30
2018-07-26T14:16:36.491Z,20.30
2018-07-26T14:19:05.929Z,20.30
2018-07-26T14:21:34.782Z,20.30
2018-07-26T14:24:07.956Z,20.20
2018-07-26T14:29:05.194Z,20.30
2018-07-26T14:31:33.948Z,20.30
2018-07-26T14:34:02.548Z,20.30
2018-07-26T14:36:31.462Z,20.30
2018-07-26T14:39:00.182Z,20.30
2018-07-26T14:43:57.289Z,20.30
2018-07-26T14:46:26.063Z,20.30
2018-07-26T14:48:55.089Z,20.30
2018-07-26T14:51:24.067Z,20.20
2018-07-26T14:53:53.577Z,20.20
2018-07-26T14:56:22.437Z,20.20
2018-07-26T14:58:51.812Z,20.20
2018-07-26T15:01:20.725Z,20.30
2018-07-26T15:03:49.380Z,20.30
2018-07-26T15:06:18.293Z,20.30
2018-07-26T15:08:47.026Z,20.30
2018-07-26T15:11:16.580Z,20.30
2018-07-26T15:13:45.825Z,20.30
2018-07-26T15:16:14.835Z,20.40
2018-07-26T15:18:44.154Z,20.30
2018-07-26T15:21:13.002Z,20.30
2018-07-26T15:23:42.125Z,20.30
2018-07-26T15:26:10.658Z,20.30
2018-07-26T15:31:07.844Z,20.30
2018-07-26T15:33:36.469Z,20.30
2018-07-26T15:36:05.137Z,20.30
2018-07-26T15:38:33.715Z,20.20
2018-07-26T15:41:02.602Z,20.30
2018-07-26T15:43:31.958Z,20.30
2018-07-26T15:46:00.819Z,20.30
2018-07-26T15:48:29.886Z,20.30
2018-07-26T15:50:58.892Z,20.30
2018-07-26T15:53:27.728Z,20.30
2018-07-26T15:55:56.470Z,20.30
2018-07-26T15:58:25.340Z,20.30
2018-07-26T16:00:54.420Z,20.30
2018-07-26T16:03:23.128Z,20.30
2018-07-26T16:05:51.961Z,20.30
2018-07-26T16:08:20.750Z,20.30
2018-07-26T16:10:49.701Z,20.30
2018-07-26T16:13:18.603Z,20.30
2018-07-26T16:15:47.440Z,20.30
2018-07-26T16:18:16.488Z,20.30
2018-07-26T16:20:45.358Z,20.30
2018-07-26T16:23:14.529Z,20.30
2018-07-26T16:25:43.532Z,20.30
2018-07-26T16:28:12.427Z,20.30
2018-07-26T16:30:41.258Z,20.30
2018-07-26T16:33:10.392Z,20.30
2018-07-26T16:35:39.217Z,20.40
2018-07-26T16:38:07.884Z,20.40
2018-07-26T16:43:05.234Z,20.50
2018-07-26T16:45:34.082Z,20.40
2018-07-26T16:48:02.946Z,20.50
2018-07-26T16:50:31.516Z,20.40
2018-07-26T16:53:00.290Z,20.50
2018-07-26T16:55:29.130Z,20.50
2018-07-26T16:57:58.154Z,20.50
2018-07-26T17:00:27.070Z,20.50
2018-07-26T17:02:56.173Z,20.50
2018-07-26T17:05:24.788Z,20.50
2018-07-26T17:07:53.772Z,20.50
2018-07-26T17:10:22.686Z,20.50
2018-07-26T17:12:51.755Z,20.50
2018-07-26T17:15:20.683Z,20.50
2018-07-26T17:17:49.773Z,20.50
2018-07-26T17:20:18.681Z,20.50
2018-07-26T17:22:47.790Z,20.50
2018-07-26T17:25:20.510Z,20.40
2018-07-26T17:27:49.444Z,20.40
2018-07-26T17:30:18.353Z,20.40
2018-07-26T17:32:47.405Z,20.40
2018-07-26T17:35:16.134Z,20.40
2018-07-26T17:37:45.622Z,20.40
2018-07-26T17:40:14.465Z,20.40
2018-07-26T17:45:12.537Z,20.40
2018-07-26T17:47:41.524Z,20.40
2018-07-26T17:50:11.295Z,20.40
2018-07-26T17:52:40.760Z,20.40
2018-07-26T17:55:10.128Z,20.40
2018-07-26T17:57:39.514Z,20.30
2018-07-26T18:00:10.839Z,20.40
2018-07-26T18:02:39.773Z,20.30
2018-07-26T18:05:09.152Z,20.40
2018-07-26T18:07:37.791Z,20.30
2018-07-26T18:10:07.155Z,20.30
2018-07-26T18:12:35.924Z,20.40
2018-07-26T18:15:05.690Z,20.30
2018-07-26T18:17:34.807Z,20.40
2018-07-26T18:20:03.885Z,20.30
2018-07-26T18:22:32.531Z,20.30
2018-07-26T18:25:01.454Z,20.30
2018-07-26T18:27:30.353Z,20.30
2018-07-26T18:29:59.360Z,20.30
2018-07-26T18:32:28.275Z,20.30
2018-07-26T18:34:57.258Z,20.30
2018-07-26T18:37:26.459Z,20.30
2018-07-26T18:39:55.159Z,20.30
2018-07-26T18:42:23.800Z,20.30
2018-07-26T18:44:52.804Z,20.30
2018-07-26T18:47:21.655Z,20.30
2018-07-26T18:49:50.716Z,20.30
2018-07-26T18:52:19.809Z,20.30
2018-07-26T18:54:48.777Z,20.30
2018-07-26T18:57:22.438Z,20.20
2018-07-26T18:59:51.450Z,20.20
2018-07-26T19:02:20.398Z,20.30
2018-07-26T19:04:49.336Z,20.20
2018-07-26T19:07:18.181Z,20.20
2018-07-26T19:09:47.323Z,20.20
2018-07-26T19:12:16.166Z,20.30
2018-07-26T19:14:45.212Z,20.20
2018-07-26T19:17:14.050Z,20.20
2018-07-26T19:19:42.991Z,20.20
2018-07-26T19:22:11.836Z,20.20
2018-07-26T19:24:40.878Z,20.20
2018-07-26T19:27:09.712Z,20.20
2018-07-26T19:29:38.616Z,20.20
2018-07-26T19:32:07.306Z,20.20
2018-07-26T19:34:36.000Z,20.20
2018-07-26T19:37:04.570Z,20.30
2018-07-26T19:39:33.578Z,20.20
2018-07-26T19:42:02.450Z,20.20
2018-07-26T19:44:31.226Z,20.20
2018-07-26T19:47:00.035Z,20.30
2018-07-26T19:49:28.778Z,20.20
2018-07-26T19:51:57.621Z,20.20
2018-07-26T19:54:26.300Z,20.20
2018-07-26T19:56:55.291Z,20.20
2018-07-26T19:59:24.093Z,20.30
2018-07-26T20:01:52.898Z,20.20
2018-07-26T20:04:21.664Z,20.20
2018-07-26T20:06:50.528Z,20.20
2018-07-26T20:09:19.216Z,20.20
2018-07-26T20:11:48.054Z,20.20
2018-07-26T20:14:16.717Z,20.20
2018-07-26T20:16:45.570Z,20.20
2018-07-26T20:21:42.802Z,20.20
2018-07-26T20:24:11.819Z,20.20
2018-07-26T20:26:40.604Z,20.20
2018-07-26T20:29:09.285Z,20.20
2018-07-26T20:31:38.145Z,20.20
2018-07-26T20:34:07.013Z,20.10
2018-07-26T20:36:35.709Z,20.10
2018-07-26T20:39:07.416Z,20.10
2018-07-26T20:41:36.364Z,20.10
2018-07-26T20:44:05.176Z,20.10
2018-07-26T20:46:34.030Z,20.10
2018-07-26T20:49:02.774Z,20.00
2018-07-26T20:51:31.614Z,20.00
2018-07-26T20:54:00.348Z,20.10
2018-07-26T20:56:29.267Z,20.00
2018-07-26T20:58:57.991Z,20.00
2018-07-26T21:01:26.691Z,20.00
2018-07-26T21:03:55.369Z,20.00
2018-07-26T21:06:24.062Z,20.00
2018-07-26T21:08:53.048Z,20.00
2018-07-26T21:11:22.036Z,20.00
2018-07-26T21:13:50.647Z,19.90
2018-07-26T21:16:19.506Z,19.90
2018-07-26T21:18:48.270Z,19.90
2018-07-26T21:23:45.657Z,19.80
2018-07-26T21:26:14.260Z,19.80
2018-07-26T21:28:43.106Z,19.80
2018-07-26T21:31:12.055Z,19.80
2018-07-26T21:33:40.804Z,19.80
2018-07-26T21:36:09.426Z,19.70
2018-07-26T21:38:38.049Z,19.80
2018-07-26T21:41:07.284Z,19.70
2018-07-26T21:43:36.110Z,19.70
2018-07-26T21:46:05.110Z,19.70
2018-07-26T21:48:33.905Z,19.70
2018-07-26T21:51:02.765Z,19.70
2018-07-26T21:53:31.488Z,19.70
2018-07-26T21:56:00.310Z,19.70
2018-07-26T21:58:29.027Z,19.70
2018-07-26T22:00:58.681Z,19.70
2018-07-26T22:03:28.872Z,19.70
2018-07-26T22:05:57.558Z,19.70
2018-07-26T22:08:26.326Z,19.70
2018-07-26T22:10:55.114Z,19.70
2018-07-26T22:13:24.099Z,19.60
2018-07-26T22:15:53.382Z,19.70
2018-07-26T22:18:23.040Z,19.60
2018-07-26T22:20:52.194Z,19.70
2018-07-26T22:23:21.104Z,19.60
2018-07-26T22:25:50.706Z,19.60
2018-07-26T22:28:19.853Z,19.60
2018-07-26T22:30:48.884Z,19.60
2018-07-26T22:35:46.164Z,19.60
2018-07-26T22:38:14.940Z,19.60
2018-07-26T22:40:43.629Z,19.50
2018-07-26T22:43:12.417Z,19.50
2018-07-26T22:45:41.237Z,19.50
2018-07-26T22:48:09.960Z,19.50
2018-07-26T22:50:38.529Z,19.50
2018-07-26T22:53:07.121Z,19.50
2018-07-26T22:55:36.325Z,19.50
2018-07-26T22:58:05.153Z,19.50
2018-07-26T23:00:33.840Z,19.50
2018-07-26T23:03:02.647Z,19.50
2018-07-26T23:05:31.537Z,19.50
2018-07-26T23:10:28.828Z,19.40
2018-07-26T23:12:57.507Z,19.40
2018-07-26T23:15:26.333Z,19.40
2018-07-26T23:17:55.036Z,19.40
2018-07-26T23:20:23.862Z,19.40
2018-07-26T23:22:53.986Z,19.40
2018-07-26T23:25:22.843Z,19.40
2018-07-26T23:27:51.706Z,19.40
2018-07-26T23:30:20.465Z,19.40
2018-07-26T23:32:49.273Z,19.40
2018-07-26T23:35:17.877Z,19.30
2018-07-26T23:37:46.757Z,19.30
2018-07-26T23:40:15.440Z,19.30
2018-07-26T23:42:44.205Z,19.30
2018-07-26T23:45:12.928Z,19.30
2018-07-26T23:47:41.895Z,19.30
2018-07-26T23:50:11.185Z,19.20
2018-07-26T23:52:39.996Z,19.20
2018-07-26T23:55:08.525Z,19.20
2018-07-26T23:57:37.254Z,19.10
